createdAt,value
2018-03-11T00:00:49.061Z,846.69
2018-03-11T00:01:48.934Z,846.70
2018-03-11T00:02:48.803Z,846.66
2018-03-11T00:03:48.671Z,846.66
2018-03-11T00:04:48.549Z,846.64
2018-03-11T00:05:48.418Z,846.64
2018-03-11T00:06:48.290Z,846.64
2018-03-11T00:07:48.157Z,846.62
2018-03-11T00:08:48.029Z,846.60
2018-03-11T00:09:47.899Z,846.60
2018-03-11T00:10:47.775Z,846.57
2018-03-11T00:11:47.639Z,846.58
2018-03-11T00:12:47.527Z,846.51
2018-03-11T00:13:47.382Z,846.48
2018-03-11T00:14:47.252Z,846.49
2018-03-11T00:15:47.123Z,846.50
2018-03-11T00:16:46.993Z,846.48
2018-03-11T00:17:46.871Z,846.52
2018-03-11T00:18:46.736Z,846.55
2018-03-11T00:19:46.609Z,846.53
2018-03-11T00:20:46.480Z,846.54
2018-03-11T00:21:46.349Z,846.50
2018-03-11T00:22:46.220Z,846.46
2018-03-11T00:23:46.090Z,846.42
2018-03-11T00:24:45.967Z,846.35
2018-03-11T00:25:45.833Z,846.33
2018-03-11T00:26:45.705Z,846.34
2018-03-11T00:27:45.578Z,846.35
2018-03-11T00:28:45.445Z,846.37
2018-03-11T00:29:45.320Z,846.39
2018-03-11T00:30:45.188Z,846.45
2018-03-11T00:31:45.060Z,846.45
2018-03-11T00:32:44.931Z,846.41
2018-03-11T00:33:44.803Z,846.41
2018-03-11T00:34:44.689Z,846.37
2018-03-11T00:35:44.542Z,846.30
2018-03-11T00:36:44.415Z,846.27
2018-03-11T00:37:44.286Z,846.28
2018-03-11T00:38:44.173Z,846.20
2018-03-11T00:39:44.026Z,846.27
2018-03-11T00:40:43.902Z,846.31
2018-03-11T00:41:43.776Z,846.34
2018-03-11T00:42:43.643Z,846.41
2018-03-11T00:43:43.512Z,846.40
2018-03-11T00:44:43.383Z,846.37
2018-03-11T00:45:43.256Z,846.37
2018-03-11T00:46:43.123Z,846.35
2018-03-11T00:47:42.998Z,846.32
2018-03-11T00:48:42.869Z,846.29
2018-03-11T00:49:42.738Z,846.25
2018-03-11T00:50:42.607Z,846.25
2018-03-11T00:51:42.483Z,846.25
2018-03-11T00:52:42.353Z,846.24
2018-03-11T00:53:42.234Z,846.20
2018-03-11T00:54:42.094Z,846.17
2018-03-11T00:55:41.966Z,846.17
2018-03-11T00:56:41.838Z,846.14
2018-03-11T00:57:41.706Z,846.17
2018-03-11T00:58:41.579Z,846.19
2018-03-11T00:59:41.451Z,846.18
2018-03-11T01:00:41.322Z,846.16
2018-03-11T01:01:41.191Z,846.12
2018-03-11T01:02:41.062Z,846.11
2018-03-11T01:03:40.936Z,846.04
2018-03-11T01:04:40.805Z,846.01
2018-03-11T01:05:40.676Z,846.03
2018-03-11T01:06:40.549Z,846.02
2018-03-11T01:07:40.420Z,846.01
2018-03-11T01:08:40.289Z,845.98
2018-03-11T01:09:40.160Z,845.97
2018-03-11T01:10:40.033Z,845.91
2018-03-11T01:11:39.913Z,845.84
2018-03-11T01:12:39.775Z,845.85
2018-03-11T01:13:39.645Z,845.79
2018-03-11T01:14:39.518Z,845.77
2018-03-11T01:15:39.387Z,845.76
2018-03-11T01:16:39.262Z,845.78
2018-03-11T01:17:39.130Z,845.80
2018-03-11T01:18:39.002Z,845.78
2018-03-11T01:19:38.874Z,845.77
2018-03-11T01:20:38.744Z,845.72
2018-03-11T01:21:38.615Z,845.69
2018-03-11T01:22:38.485Z,845.67
2018-03-11T01:23:38.359Z,845.67
2018-03-11T01:24:38.229Z,845.68
2018-03-11T01:25:38.101Z,845.64
2018-03-11T01:26:37.971Z,845.63
2018-03-11T01:27:37.841Z,845.65
2018-03-11T01:28:37.712Z,845.63
2018-03-11T01:29:37.582Z,845.60
2018-03-11T01:30:37.452Z,845.59
2018-03-11T01:31:37.326Z,845.57
2018-03-11T01:32:37.196Z,845.59
2018-03-11T01:33:37.068Z,845.58
2018-03-11T01:34:36.940Z,845.54
2018-03-11T01:35:36.813Z,845.62
2018-03-11T01:36:36.682Z,845.62
2018-03-11T01:37:36.556Z,845.56
2018-03-11T01:38:36.423Z,845.58
2018-03-11T01:39:36.292Z,845.55
2018-03-11T01:40:36.163Z,845.57
2018-03-11T01:41:36.035Z,845.55
2018-03-11T01:42:35.905Z,845.55
2018-03-11T01:43:35.775Z,845.52
2018-03-11T01:44:35.646Z,845.50
2018-03-11T01:45:35.519Z,845.45
2018-03-11T01:46:35.391Z,845.43
2018-03-11T01:47:35.264Z,845.40
2018-03-11T01:48:35.129Z,845.41
2018-03-11T01:49:35.002Z,845.41
2018-03-11T01:50:34.871Z,845.42
2018-03-11T01:51:34.742Z,845.37
2018-03-11T01:52:34.614Z,845.35
2018-03-11T01:53:34.485Z,845.31
2018-03-11T01:54:34.357Z,845.21
2018-03-11T01:55:34.231Z,845.21
2018-03-11T01:56:34.098Z,845.16
2018-03-11T01:57:33.975Z,845.12
2018-03-11T01:58:33.843Z,845.13
2018-03-11T01:59:33.711Z,845.18
2018-03-11T02:00:33.584Z,845.23
2018-03-11T02:01:33.453Z,845.21
2018-03-11T02:02:33.324Z,845.23
2018-03-11T02:03:33.193Z,845.25
2018-03-11T02:04:33.090Z,845.30
2018-03-11T02:05:32.937Z,845.26
2018-03-11T02:06:32.809Z,845.29
2018-03-11T02:07:32.677Z,845.29
2018-03-11T02:08:32.548Z,845.28
2018-03-11T02:09:32.433Z,845.29
2018-03-11T02:10:32.288Z,845.27
2018-03-11T02:11:32.159Z,845.27
2018-03-11T02:12:32.032Z,845.29
2018-03-11T02:13:31.902Z,845.30
2018-03-11T02:14:31.772Z,845.32
2018-03-11T02:15:31.643Z,845.34
2018-03-11T02:16:31.516Z,845.34
2018-03-11T02:17:31.387Z,845.29
2018-03-11T02:18:31.256Z,845.23
2018-03-11T02:19:31.129Z,845.27
2018-03-11T02:20:30.999Z,845.24
2018-03-11T02:21:30.871Z,845.22
2018-03-11T02:22:30.739Z,845.21
2018-03-11T02:23:30.613Z,845.16
2018-03-11T02:24:30.482Z,845.18
2018-03-11T02:25:30.357Z,845.14
2018-03-11T02:26:30.224Z,845.16
2018-03-11T02:27:30.094Z,845.12
2018-03-11T02:28:29.967Z,845.16
2018-03-11T02:29:29.841Z,845.07
2018-03-11T02:30:29.708Z,844.98
2018-03-11T02:31:29.579Z,844.95
2018-03-11T02:32:29.449Z,844.99
2018-03-11T02:33:29.323Z,845.04
2018-03-11T02:34:29.193Z,845.02
2018-03-11T02:35:29.062Z,845.05
2018-03-11T02:36:28.934Z,844.96
2018-03-11T02:37:28.808Z,844.82
2018-03-11T02:38:28.674Z,844.73
2018-03-11T02:39:28.547Z,844.74
2018-03-11T02:40:28.418Z,844.71
2018-03-11T02:41:28.289Z,844.76
2018-03-11T02:42:28.160Z,844.77
2018-03-11T02:43:28.030Z,844.78
2018-03-11T02:44:27.901Z,844.80
2018-03-11T02:45:27.772Z,844.80
2018-03-11T02:46:27.644Z,844.75
2018-03-11T02:47:27.514Z,844.71
2018-03-11T02:48:27.389Z,844.63
2018-03-11T02:49:27.256Z,844.52
2018-03-11T02:50:27.124Z,844.47
2018-03-11T02:51:26.999Z,844.48
2018-03-11T02:52:26.867Z,844.43
2018-03-11T02:53:26.740Z,844.39
2018-03-11T02:54:26.608Z,844.35
2018-03-11T02:55:26.479Z,844.36
2018-03-11T02:56:26.353Z,844.41
2018-03-11T02:57:26.222Z,844.40
2018-03-11T02:58:26.090Z,844.43
2018-03-11T02:59:25.964Z,844.43
2018-03-11T03:00:25.835Z,844.37
2018-03-11T03:01:25.707Z,844.33
2018-03-11T03:02:25.574Z,844.24
2018-03-11T03:03:25.447Z,844.19
2018-03-11T03:04:25.318Z,844.15
2018-03-11T03:05:25.188Z,844.13
2018-03-11T03:06:25.059Z,844.13
2018-03-11T03:07:24.931Z,844.07
2018-03-11T03:08:24.805Z,844.07
2018-03-11T03:09:24.673Z,844.03
2018-03-11T03:10:24.542Z,843.94
2018-03-11T03:11:24.415Z,843.93
2018-03-11T03:12:24.283Z,843.87
2018-03-11T03:13:24.153Z,843.92
2018-03-11T03:14:24.026Z,843.99
2018-03-11T03:15:23.898Z,844.05
2018-03-11T03:16:23.766Z,844.08
2018-03-11T03:17:23.637Z,844.09
2018-03-11T03:18:23.506Z,844.15
2018-03-11T03:19:23.377Z,844.12
2018-03-11T03:20:23.252Z,844.16
2018-03-11T03:21:23.123Z,844.12
2018-03-11T03:22:22.990Z,844.12
2018-03-11T03:23:22.864Z,844.10
2018-03-11T03:24:22.732Z,844.10
2018-03-11T03:25:22.602Z,844.06
2018-03-11T03:26:22.477Z,843.98
2018-03-11T03:27:22.346Z,843.92
2018-03-11T03:28:22.216Z,843.93
2018-03-11T03:29:22.087Z,843.92
2018-03-11T03:30:21.957Z,843.91
2018-03-11T03:31:21.831Z,843.89
2018-03-11T03:32:21.703Z,843.88
2018-03-11T03:33:21.571Z,843.91
2018-03-11T03:34:21.440Z,843.92
2018-03-11T03:35:21.312Z,843.96
2018-03-11T03:36:21.186Z,844.04
2018-03-11T03:37:21.054Z,844.10
2018-03-11T03:38:20.925Z,844.19
2018-03-11T03:39:20.797Z,844.17
2018-03-11T03:40:20.670Z,844.23
2018-03-11T03:41:20.536Z,844.31
2018-03-11T03:42:20.408Z,844.30
2018-03-11T03:43:20.282Z,844.23
2018-03-11T03:44:20.152Z,844.17
2018-03-11T03:45:20.025Z,844.17
2018-03-11T03:46:19.893Z,844.15
2018-03-11T03:47:19.767Z,844.12
2018-03-11T03:48:19.638Z,844.08
2018-03-11T03:49:19.517Z,844.15
2018-03-11T03:50:19.379Z,844.10
2018-03-11T03:51:19.249Z,844.10
2018-03-11T03:52:19.122Z,844.13
2018-03-11T03:53:18.993Z,844.11
2018-03-11T03:54:18.863Z,844.12
2018-03-11T03:55:18.736Z,844.06
2018-03-11T03:56:18.609Z,844.12
2018-03-11T03:57:18.478Z,844.06
2018-03-11T03:58:18.350Z,844.06
2018-03-11T03:59:18.220Z,844.04
2018-03-11T04:00:18.091Z,844.05
2018-03-11T04:01:17.964Z,844.04
2018-03-11T04:02:17.835Z,844.06
2018-03-11T04:03:17.705Z,844.00
2018-03-11T04:04:17.577Z,844.07
2018-03-11T04:05:17.452Z,844.07
2018-03-11T04:06:17.319Z,844.01
2018-03-11T04:07:17.189Z,843.99
2018-03-11T04:08:17.062Z,843.91
2018-03-11T04:09:16.932Z,843.87
2018-03-11T04:10:16.804Z,843.91
2018-03-11T04:11:16.681Z,843.86
2018-03-11T04:12:16.551Z,843.83
2018-03-11T04:13:16.418Z,843.77
2018-03-11T04:14:16.286Z,843.82
2018-03-11T04:15:16.160Z,843.78
2018-03-11T04:16:16.031Z,843.71
2018-03-11T04:17:15.902Z,843.59
2018-03-11T04:18:15.774Z,843.54
2018-03-11T04:19:15.642Z,843.47
2018-03-11T04:20:15.516Z,843.40
2018-03-11T04:21:15.388Z,843.36
2018-03-11T04:22:15.255Z,843.33
2018-03-11T04:23:15.130Z,843.30
2018-03-11T04:24:15.000Z,843.34
2018-03-11T04:25:14.869Z,843.40
2018-03-11T04:26:14.745Z,843.51
2018-03-11T04:27:14.611Z,843.64
2018-03-11T04:28:14.485Z,843.69
2018-03-11T04:29:14.356Z,843.68
2018-03-11T04:30:14.241Z,843.64
2018-03-11T04:31:14.099Z,843.64
2018-03-11T04:32:13.969Z,843.70
2018-03-11T04:33:13.838Z,843.71
2018-03-11T04:34:13.711Z,843.75
2018-03-11T04:35:13.583Z,843.71
2018-03-11T04:36:13.453Z,843.66
2018-03-11T04:37:13.324Z,843.58
2018-03-11T04:38:13.195Z,843.53
2018-03-11T04:39:13.064Z,843.54
2018-03-11T04:40:12.939Z,843.56
2018-03-11T04:41:12.812Z,843.54
2018-03-11T04:42:12.678Z,843.56
2018-03-11T04:43:12.553Z,843.55
2018-03-11T04:44:12.423Z,843.52
2018-03-11T04:45:12.294Z,843.49
2018-03-11T04:46:12.165Z,843.46
2018-03-11T04:47:12.038Z,843.41
2018-03-11T04:48:11.908Z,843.41
2018-03-11T04:49:11.780Z,843.41
2018-03-11T04:50:11.651Z,843.45
2018-03-11T04:51:11.526Z,843.47
2018-03-11T04:52:11.395Z,843.51
2018-03-11T04:53:11.268Z,843.51
2018-03-11T04:54:11.140Z,843.55
2018-03-11T04:55:11.017Z,843.54
2018-03-11T04:56:10.879Z,843.52
2018-03-11T04:57:10.753Z,843.53
2018-03-11T04:58:10.626Z,843.48
2018-03-11T04:59:10.496Z,843.46
2018-03-11T05:00:10.369Z,843.42
2018-03-11T05:01:10.242Z,843.37
2018-03-11T05:02:10.113Z,843.32
2018-03-11T05:03:09.985Z,843.32
2018-03-11T05:04:09.853Z,843.27
2018-03-11T05:05:09.726Z,843.25
2018-03-11T05:06:09.596Z,843.25
2018-03-11T05:07:09.468Z,843.24
2018-03-11T05:08:09.341Z,843.22
2018-03-11T05:09:09.211Z,843.19
2018-03-11T05:10:09.083Z,843.19
2018-03-11T05:11:08.957Z,843.14
2018-03-11T05:12:08.826Z,843.16
2018-03-11T05:13:08.695Z,843.18
2018-03-11T05:14:08.569Z,843.23
2018-03-11T05:15:08.438Z,843.20
2018-03-11T05:16:08.312Z,843.21
2018-03-11T05:17:08.182Z,843.21
2018-03-11T05:18:08.059Z,843.20
2018-03-11T05:19:07.922Z,843.19
2018-03-11T05:20:07.794Z,843.17
2018-03-11T05:21:07.664Z,843.18
2018-03-11T05:22:07.537Z,843.23
2018-03-11T05:23:07.407Z,843.26
2018-03-11T05:24:07.280Z,843.29
2018-03-11T05:25:07.148Z,843.28
2018-03-11T05:26:07.018Z,843.26
2018-03-11T05:27:06.892Z,843.24
2018-03-11T05:28:06.770Z,843.29
2018-03-11T05:29:06.634Z,843.27
2018-03-11T05:30:06.503Z,843.27
2018-03-11T05:31:06.375Z,843.30
2018-03-11T05:32:06.260Z,843.29
2018-03-11T05:33:06.119Z,843.29
2018-03-11T05:34:05.987Z,843.32
2018-03-11T05:35:05.863Z,843.33
2018-03-11T05:36:05.729Z,843.33
2018-03-11T05:37:05.600Z,843.31
2018-03-11T05:38:05.475Z,843.26
2018-03-11T05:39:05.343Z,843.24
2018-03-11T05:40:05.216Z,843.24
2018-03-11T05:41:05.084Z,843.19
2018-03-11T05:42:04.955Z,843.20
2018-03-11T05:43:04.825Z,843.18
2018-03-11T05:44:04.698Z,843.15
2018-03-11T05:45:04.569Z,843.09
2018-03-11T05:46:04.442Z,843.07
2018-03-11T05:47:04.328Z,843.03
2018-03-11T05:48:04.182Z,842.98
2018-03-11T05:49:04.053Z,842.95
2018-03-11T05:50:03.925Z,842.95
2018-03-11T05:51:03.793Z,842.93
2018-03-11T05:52:03.663Z,842.93
2018-03-11T05:53:03.536Z,842.90
2018-03-11T05:54:03.409Z,842.84
2018-03-11T05:55:03.278Z,842.80
2018-03-11T05:56:03.149Z,842.78
2018-03-11T05:57:03.021Z,842.76
2018-03-11T05:58:02.896Z,842.79
2018-03-11T05:59:02.761Z,842.85
2018-03-11T06:00:02.635Z,842.81
2018-03-11T06:01:02.507Z,842.84
2018-03-11T06:02:02.375Z,842.75
2018-03-11T06:03:02.245Z,842.72
2018-03-11T06:04:02.118Z,842.70
2018-03-11T06:05:02.027Z,842.72
2018-03-11T06:06:01.858Z,842.68
2018-03-11T06:07:01.730Z,842.73
2018-03-11T06:08:01.603Z,842.69
2018-03-11T06:09:01.473Z,842.67
2018-03-11T06:10:01.347Z,842.69
2018-03-11T06:11:01.214Z,842.74
2018-03-11T06:12:01.085Z,842.73
2018-03-11T06:13:00.957Z,842.71
2018-03-11T06:14:00.827Z,842.67
2018-03-11T06:15:00.698Z,842.60
2018-03-11T06:16:00.570Z,842.55
2018-03-11T06:17:00.440Z,842.58
2018-03-11T06:18:00.309Z,842.58
2018-03-11T06:19:00.183Z,842.60
2018-03-11T06:20:00.057Z,842.55
2018-03-11T06:20:59.925Z,842.47
2018-03-11T06:21:59.795Z,842.43
2018-03-11T06:22:59.667Z,842.40
2018-03-11T06:23:59.541Z,842.43
2018-03-11T06:24:59.410Z,842.44
2018-03-11T06:25:59.293Z,842.43
2018-03-11T06:26:59.155Z,842.38
2018-03-11T06:27:59.027Z,842.40
2018-03-11T06:28:58.899Z,842.38
2018-03-11T06:29:58.778Z,842.34
2018-03-11T06:30:58.641Z,842.32
2018-03-11T06:31:58.511Z,842.30
2018-03-11T06:32:58.385Z,842.34
2018-03-11T06:33:58.253Z,842.33
2018-03-11T06:34:58.130Z,842.37
2018-03-11T06:35:57.995Z,842.37
2018-03-11T06:36:57.868Z,842.40
2018-03-11T06:37:57.747Z,842.37
2018-03-11T06:38:57.638Z,842.43
2018-03-11T06:39:57.482Z,842.42
2018-03-11T06:40:57.355Z,842.41
2018-03-11T06:41:57.226Z,842.42
2018-03-11T06:42:57.098Z,842.40
2018-03-11T06:43:56.970Z,842.40
2018-03-11T06:44:56.837Z,842.40
2018-03-11T06:45:56.717Z,842.37
2018-03-11T06:46:56.581Z,842.37
2018-03-11T06:47:56.452Z,842.38
2018-03-11T06:48:56.327Z,842.41
2018-03-11T06:49:56.196Z,842.43
2018-03-11T06:50:56.068Z,842.42
2018-03-11T06:51:55.943Z,842.36
2018-03-11T06:52:55.810Z,842.26
2018-03-11T06:53:55.683Z,842.28
2018-03-11T06:54:55.554Z,842.36
2018-03-11T06:55:55.429Z,842.38
2018-03-11T06:56:55.300Z,842.38
2018-03-11T06:57:55.169Z,842.40
2018-03-11T06:58:55.040Z,842.37
2018-03-11T06:59:54.924Z,842.34
2018-03-11T07:00:54.785Z,842.37
2018-03-11T07:01:54.654Z,842.35
2018-03-11T07:02:54.526Z,842.35
2018-03-11T07:03:54.398Z,842.26
2018-03-11T07:04:54.277Z,842.26
2018-03-11T07:05:54.142Z,842.23
2018-03-11T07:06:54.012Z,842.23
2018-03-11T07:07:53.890Z,842.16
2018-03-11T07:08:53.981Z,842.08
2018-03-11T07:09:53.632Z,842.14
2018-03-11T07:10:53.542Z,842.21
2018-03-11T07:11:53.375Z,842.19
2018-03-11T07:12:53.248Z,842.24
2018-03-11T07:13:53.142Z,842.19
2018-03-11T07:14:53.128Z,842.18
2018-03-11T07:15:52.865Z,842.21
2018-03-11T07:16:52.734Z,842.25
2018-03-11T07:17:52.605Z,842.29
2018-03-11T07:18:52.476Z,842.25
2018-03-11T07:19:52.370Z,842.21
2018-03-11T07:20:52.221Z,842.21
2018-03-11T07:21:52.094Z,842.23
2018-03-11T07:22:51.966Z,842.26
2018-03-11T07:23:51.874Z,842.28
2018-03-11T07:24:51.711Z,842.31
2018-03-11T07:25:51.584Z,842.30
2018-03-11T07:26:51.456Z,842.26
2018-03-11T07:27:51.325Z,842.22
2018-03-11T07:28:51.197Z,842.23
2018-03-11T07:29:51.091Z,842.30
2018-03-11T07:30:50.946Z,842.32
2018-03-11T07:31:50.815Z,842.35
2018-03-11T07:32:50.687Z,842.36
2018-03-11T07:33:50.557Z,842.34
2018-03-11T07:34:50.493Z,842.37
2018-03-11T07:35:50.311Z,842.37
2018-03-11T07:36:50.190Z,842.37
2018-03-11T07:37:50.048Z,842.37
2018-03-11T07:38:50.043Z,842.32
2018-03-11T07:39:49.801Z,842.35
2018-03-11T07:40:49.667Z,842.31
2018-03-11T07:41:49.538Z,842.32
2018-03-11T07:42:49.407Z,842.34
2018-03-11T07:43:49.384Z,842.37
2018-03-11T07:44:49.185Z,842.35
2018-03-11T07:45:49.027Z,842.35
2018-03-11T07:46:48.901Z,842.37
2018-03-11T07:47:48.774Z,842.31
2018-03-11T07:48:48.645Z,842.33
2018-03-11T07:49:48.518Z,842.31
2018-03-11T07:50:48.429Z,842.31
2018-03-11T07:51:48.263Z,842.29
2018-03-11T07:52:48.136Z,842.25
2018-03-11T07:53:48.008Z,842.27
2018-03-11T07:54:47.878Z,842.26
2018-03-11T07:55:47.754Z,842.25
2018-03-11T07:56:47.631Z,842.23
2018-03-11T07:57:47.499Z,842.22
2018-03-11T07:58:47.372Z,842.26
2018-03-11T07:59:47.244Z,842.25
2018-03-11T08:00:47.118Z,842.23
2018-03-11T08:01:47.017Z,842.19
2018-03-11T08:02:46.860Z,842.20
2018-03-11T08:03:46.737Z,842.18
2018-03-11T08:04:46.630Z,842.14
2018-03-11T08:05:46.615Z,842.13
2018-03-11T08:06:46.365Z,842.14
2018-03-11T08:07:46.225Z,842.10
2018-03-11T08:08:46.097Z,842.03
2018-03-11T08:09:45.971Z,842.03
2018-03-11T08:10:45.849Z,842.04
2018-03-11T08:11:45.715Z,842.08
2018-03-11T08:12:45.595Z,842.12
2018-03-11T08:13:45.464Z,842.17
2018-03-11T08:14:45.339Z,842.16
2018-03-11T08:15:45.210Z,842.13
2018-03-11T08:16:45.082Z,842.12
2018-03-11T08:17:44.955Z,842.10
2018-03-11T08:18:44.834Z,842.04
2018-03-11T08:19:44.701Z,842.01
2018-03-11T08:20:44.576Z,842.01
2018-03-11T08:21:44.450Z,841.97
2018-03-11T08:22:44.332Z,841.96
2018-03-11T08:23:44.196Z,841.99
2018-03-11T08:24:44.069Z,842.03
2018-03-11T08:25:43.945Z,842.02
2018-03-11T08:26:43.818Z,841.95
2018-03-11T08:27:43.692Z,841.97
2018-03-11T08:28:43.566Z,841.97
2018-03-11T08:29:43.438Z,841.97
2018-03-11T08:30:43.317Z,841.91
2018-03-11T08:31:43.188Z,841.90
2018-03-11T08:32:43.062Z,841.92
2018-03-11T08:33:42.934Z,841.90
2018-03-11T08:34:42.810Z,841.92
2018-03-11T08:35:42.682Z,841.91
2018-03-11T08:36:42.557Z,841.90
2018-03-11T08:37:42.433Z,841.89
2018-03-11T08:38:42.307Z,841.87
2018-03-11T08:39:42.179Z,841.89
2018-03-11T08:40:42.057Z,841.87
2018-03-11T08:41:41.929Z,841.83
2018-03-11T08:42:41.802Z,841.83
2018-03-11T08:43:41.678Z,841.83
2018-03-11T08:44:41.552Z,841.76
2018-03-11T08:45:41.424Z,841.75
2018-03-11T08:46:41.300Z,841.79
2018-03-11T08:47:41.181Z,841.80
2018-03-11T08:48:41.052Z,841.83
2018-03-11T08:49:40.924Z,841.79
2018-03-11T08:50:40.808Z,841.75
2018-03-11T08:51:40.672Z,841.74
2018-03-11T08:52:40.549Z,841.74
2018-03-11T08:53:40.422Z,841.77
2018-03-11T08:54:40.298Z,841.75
2018-03-11T08:55:40.173Z,841.69
2018-03-11T08:56:40.050Z,841.71
2018-03-11T08:57:39.925Z,841.71
2018-03-11T08:58:39.799Z,841.65
2018-03-11T08:59:39.687Z,841.58
2018-03-11T09:00:39.852Z,841.61
2018-03-11T09:01:39.422Z,841.53
2018-03-11T09:02:39.300Z,841.58
2018-03-11T09:03:39.174Z,841.51
2018-03-11T09:04:39.050Z,841.48
2018-03-11T09:05:38.923Z,841.48
2018-03-11T09:06:38.799Z,841.49
2018-03-11T09:07:38.678Z,841.43
2018-03-11T09:08:38.549Z,841.42
2018-03-11T09:09:38.491Z,841.42
2018-03-11T09:10:38.347Z,841.44
2018-03-11T09:11:38.175Z,841.48
2018-03-11T09:12:38.056Z,841.42
2018-03-11T09:13:37.964Z,841.41
2018-03-11T09:14:37.806Z,841.35
2018-03-11T09:15:37.690Z,841.37
2018-03-11T09:16:37.557Z,841.34
2018-03-11T09:17:37.433Z,841.30
2018-03-11T09:18:37.340Z,841.29
2018-03-11T09:19:37.186Z,841.28
2018-03-11T09:20:37.059Z,841.23
2018-03-11T09:21:37.181Z,841.27
2018-03-11T09:22:36.817Z,841.17
2018-03-11T09:23:36.688Z,841.24
2018-03-11T09:24:36.562Z,841.21
2018-03-11T09:25:36.523Z,841.18
2018-03-11T09:26:36.401Z,841.16
2018-03-11T09:27:36.197Z,841.14
2018-03-11T09:28:36.072Z,841.10
2018-03-11T09:29:35.944Z,841.07
2018-03-11T09:30:35.820Z,841.05
2018-03-11T09:31:35.699Z,841.11
2018-03-11T09:32:35.576Z,841.09
2018-03-11T09:33:35.448Z,841.08
2018-03-11T09:34:35.325Z,840.99
2018-03-11T09:35:35.200Z,840.99
2018-03-11T09:36:35.075Z,841.01
2018-03-11T09:37:34.950Z,841.01
2018-03-11T09:38:34.828Z,840.99
2018-03-11T09:39:34.704Z,840.96
2018-03-11T09:40:34.578Z,840.93
2018-03-11T09:41:34.524Z,840.88
2018-03-11T09:42:34.347Z,840.89
2018-03-11T09:43:34.205Z,840.92
2018-03-11T09:44:34.082Z,840.95
2018-03-11T09:45:33.955Z,840.95
2018-03-11T09:46:33.844Z,840.94
2018-03-11T09:47:33.712Z,840.96
2018-03-11T09:48:33.585Z,840.94
2018-03-11T09:49:33.462Z,840.87
2018-03-11T09:50:33.337Z,840.85
2018-03-11T09:51:33.220Z,840.94
2018-03-11T09:52:33.109Z,840.96
2018-03-11T09:53:32.968Z,840.92
2018-03-11T09:54:32.869Z,840.94
2018-03-11T09:55:32.815Z,840.90
2018-03-11T09:56:32.600Z,840.85
2018-03-11T09:57:32.478Z,840.88
2018-03-11T09:58:32.403Z,840.88
2018-03-11T09:59:32.228Z,840.87
2018-03-11T10:00:32.104Z,840.84
2018-03-11T10:01:31.979Z,840.81
2018-03-11T10:02:31.856Z,840.79
2018-03-11T10:03:31.734Z,840.80
2018-03-11T10:04:31.610Z,840.81
2018-03-11T10:05:31.486Z,840.82
2018-03-11T10:06:31.414Z,840.89
2018-03-11T10:07:31.247Z,840.90
2018-03-11T10:08:31.121Z,840.85
2018-03-11T10:09:31.000Z,840.75
2018-03-11T10:10:30.876Z,840.70
2018-03-11T10:11:30.752Z,840.65
2018-03-11T10:12:30.630Z,840.63
2018-03-11T10:13:30.570Z,840.61
2018-03-11T10:14:30.388Z,840.63
2018-03-11T10:15:30.264Z,840.61
2018-03-11T10:16:30.146Z,840.59
2018-03-11T10:17:30.023Z,840.64
2018-03-11T10:18:29.900Z,840.56
2018-03-11T10:19:29.780Z,840.57
2018-03-11T10:20:29.657Z,840.54
2018-03-11T10:21:29.533Z,840.55
2018-03-11T10:22:29.413Z,840.49
2018-03-11T10:23:29.294Z,840.50
2018-03-11T10:24:29.172Z,840.50
2018-03-11T10:25:29.048Z,840.51
2018-03-11T10:26:28.928Z,840.54
2018-03-11T10:27:28.805Z,840.54
2018-03-11T10:28:28.685Z,840.57
2018-03-11T10:29:28.606Z,840.54
2018-03-11T10:30:28.441Z,840.57
2018-03-11T10:31:28.320Z,840.54
2018-03-11T10:32:28.200Z,840.55
2018-03-11T10:33:28.077Z,840.49
2018-03-11T10:34:27.956Z,840.48
2018-03-11T10:35:27.835Z,840.51
2018-03-11T10:36:27.715Z,840.55
2018-03-11T10:37:27.594Z,840.45
2018-03-11T10:38:27.475Z,840.47
2018-03-11T10:39:27.351Z,840.46
2018-03-11T10:40:27.230Z,840.50
2018-03-11T10:41:27.110Z,840.43
2018-03-11T10:42:26.991Z,840.42
2018-03-11T10:43:26.908Z,840.43
2018-03-11T10:44:26.781Z,840.39
2018-03-11T10:45:26.628Z,840.39
2018-03-11T10:46:26.502Z,840.44
2018-03-11T10:47:26.381Z,840.44
2018-03-11T10:48:26.260Z,840.39
2018-03-11T10:49:26.140Z,840.42
2018-03-11T10:50:26.022Z,840.33
2018-03-11T10:51:25.895Z,840.36
2018-03-11T10:52:25.771Z,840.39
2018-03-11T10:53:25.650Z,840.27
2018-03-11T10:54:25.532Z,840.28
2018-03-11T10:55:25.405Z,840.33
2018-03-11T10:56:25.353Z,840.26
2018-03-11T10:57:25.160Z,840.25
2018-03-11T10:58:25.037Z,840.19
2018-03-11T10:59:24.917Z,840.28
2018-03-11T11:00:24.811Z,840.13
2018-03-11T11:01:24.743Z,840.18
2018-03-11T11:02:24.553Z,840.13
2018-03-11T11:03:24.426Z,840.07
2018-03-11T11:04:24.303Z,840.06
2018-03-11T11:05:24.183Z,840.03
2018-03-11T11:06:24.058Z,840.11
2018-03-11T11:07:23.937Z,840.07
2018-03-11T11:08:23.828Z,840.08
2018-03-11T11:09:24.183Z,840.08
2018-03-11T11:10:23.566Z,840.10
2018-03-11T11:11:23.449Z,839.97
2018-03-11T11:12:23.324Z,840.00
2018-03-11T11:13:23.197Z,839.95
2018-03-11T11:14:23.079Z,840.03
2018-03-11T11:15:22.953Z,839.94
2018-03-11T11:16:22.830Z,839.89
2018-03-11T11:17:22.710Z,839.89
2018-03-11T11:18:22.585Z,839.96
2018-03-11T11:19:22.464Z,839.91
2018-03-11T11:20:22.338Z,839.94
2018-03-11T11:21:22.236Z,839.88
2018-03-11T11:22:22.096Z,839.87
2018-03-11T11:23:21.969Z,839.92
2018-03-11T11:24:21.845Z,839.85
2018-03-11T11:25:21.725Z,839.85
2018-03-11T11:26:21.600Z,839.85
2018-03-11T11:27:21.477Z,839.78
2018-03-11T11:28:21.354Z,839.83
2018-03-11T11:29:21.237Z,839.78
2018-03-11T11:30:21.111Z,839.76
2018-03-11T11:31:20.984Z,839.81
2018-03-11T11:32:20.863Z,839.77
2018-03-11T11:33:20.740Z,839.76
2018-03-11T11:34:20.613Z,839.69
2018-03-11T11:35:20.490Z,839.70
2018-03-11T11:36:20.370Z,839.68
2018-03-11T11:37:20.246Z,839.66
2018-03-11T11:38:20.120Z,839.73
2018-03-11T11:39:20.001Z,839.66
2018-03-11T11:40:19.878Z,839.59
2018-03-11T11:41:19.753Z,839.54
2018-03-11T11:42:19.628Z,839.55
2018-03-11T11:43:19.506Z,839.57
2018-03-11T11:44:19.385Z,839.51
2018-03-11T11:45:19.263Z,839.46
2018-03-11T11:46:19.142Z,839.43
2018-03-11T11:47:19.018Z,839.41
2018-03-11T11:48:18.892Z,839.39
2018-03-11T11:49:18.772Z,839.40
2018-03-11T11:50:18.648Z,839.40
2018-03-11T11:51:18.526Z,839.36
2018-03-11T11:52:18.405Z,839.33
2018-03-11T11:53:18.300Z,839.34
2018-03-11T11:54:18.159Z,839.37
2018-03-11T11:55:18.039Z,839.39
2018-03-11T11:56:17.912Z,839.31
2018-03-11T11:57:17.789Z,839.33
2018-03-11T11:58:17.667Z,839.35
2018-03-11T11:59:17.542Z,839.38
2018-03-11T12:00:17.422Z,839.33
2018-03-11T12:01:17.296Z,839.33
2018-03-11T12:02:17.172Z,839.32
2018-03-11T12:03:17.050Z,839.26
2018-03-11T12:04:16.931Z,839.33
2018-03-11T12:05:16.809Z,839.30
2018-03-11T12:06:16.684Z,839.33
2018-03-11T12:07:16.560Z,839.34
